sensor_id;sensor_type;location;lat;lon;timestamp;temperature;humidity
4390;DHT22;2209;48.982;8.406;2023-03-01T00:01:20;4.30;92.70
4390;DHT22;2209;48.982;8.406;2023-03-01T00:03:43;4.30;92.70
4390;DHT22;2209;48.982;8.406;2023-03-01T00:06:05;4.30;92.80
4390;DHT22;2209;48.982;8.406;2023-03-01T00:08:28;4.30;92.80
4390;DHT22;2209;48.982;8.406;2023-03-01T00:11:00;4.30;92.80
4390;DHT22;2209;48.982;8.406;2023-03-01T00:13:22;4.30;92.80
4390;DHT22;2209;48.982;8.406;2023-03-01T00:15:45;4.30;92.80
4390;DHT22;2209;48.982;8.406;2023-03-01T00:18:08;4.30;92.80
4390;DHT22;2209;48.982;8.406;2023-03-01T00:20:30;4.30;92.90
4390;DHT22;2209;48.982;8.406;2023-03-01T00:22:52;4.20;92.90
4390;DHT22;2209;48.982;8.406;2023-03-01T00:25:14;4.20;93.00
4390;DHT22;2209;48.982;8.406;2023-03-01T00:27:36;4.20;92.90
4390;DHT22;2209;48.982;8.406;2023-03-01T00:29:58;4.20;93.00
4390;DHT22;2209;48.982;8.406;2023-03-01T00:32:21;4.20;93.00
4390;DHT22;2209;48.982;8.406;2023-03-01T00:34:44;4.20;93.00
4390;DHT22;2209;48.982;8.406;2023-03-01T00:37:14;4.20;93.10
4390;DHT22;2209;48.982;8.406;2023-03-01T00:39:36;4.20;93.10
4390;DHT22;2209;48.982;8.406;2023-03-01T00:41:59;4.10;93.10
4390;DHT22;2209;48.982;8.406;2023-03-01T00:44:21;4.10;93.10
4390;DHT22;2209;48.982;8.406;2023-03-01T00:46:43;4.10;93.20
4390;DHT22;2209;48.982;8.406;2023-03-01T00:49:06;4.10;93.20
4390;DHT22;2209;48.982;8.406;2023-03-01T00:51:29;4.10;93.20
4390;DHT22;2209;48.982;8.406;2023-03-01T00:53:52;4.10;93.30
4390;DHT22;2209;48.982;8.406;2023-03-01T00:56:15;4.10;93.30
4390;DHT22;2209;48.982;8.406;2023-03-01T00:58:37;4.10;93.30
4390;DHT22;2209;48.982;8.406;2023-03-01T01:00:59;4.00;93.40
4390;DHT22;2209;48.982;8.406;2023-03-01T01:03:22;4.00;93.40
4390;DHT22;2209;48.982;8.406;2023-03-01T01:05:46;4.00;93.50
4390;DHT22;2209;48.982;8.406;2023-03-01T01:08:08;4.00;93.50
4390;DHT22;2209;48.982;8.406;2023-03-01T01:10:32;4.00;93.60
4390;DHT22;2209;48.982;8.406;2023-03-01T01:12:54;4.00;93.60
4390;DHT22;2209;48.982;8.406;2023-03-01T01:15:17;4.00;93.60
4390;DHT22;2209;48.982;8.406;2023-03-01T01:17:39;4.00;93.60
4390;DHT22;2209;48.982;8.406;2023-03-01T01:20:01;4.00;93.60
4390;DHT22;2209;48.982;8.406;2023-03-01T01:22:24;4.00;93.60
4390;DHT22;2209;48.982;8.406;2023-03-01T01:24:46;4.00;93.70
4390;DHT22;2209;48.982;8.406;2023-03-01T01:27:08;4.00;93.70
4390;DHT22;2209;48.982;8.406;2023-03-01T01:29:31;4.00;93.70
4390;DHT22;2209;48.982;8.406;2023-03-01T01:31:53;4.00;93.80
4390;DHT22;2209;48.982;8.406;2023-03-01T01:34:17;4.00;93.80
4390;DHT22;2209;48.982;8.406;2023-03-01T01:36:39;4.00;93.80
4390;DHT22;2209;48.982;8.406;2023-03-01T01:39:03;4.00;93.70
4390;DHT22;2209;48.982;8.406;2023-03-01T01:41:26;4.00;93.80
4390;DHT22;2209;48.982;8.406;2023-03-01T01:44:13;3.90;93.80
4390;DHT22;2209;48.982;8.406;2023-03-01T01:46:37;3.90;93.90
4390;DHT22;2209;48.982;8.406;2023-03-01T01:49:03;3.90;93.90
4390;DHT22;2209;48.982;8.406;2023-03-01T01:51:31;3.90;93.90
4390;DHT22;2209;48.982;8.406;2023-03-01T01:54:00;3.90;94.00
4390;DHT22;2209;48.982;8.406;2023-03-01T01:56:25;3.90;94.00
4390;DHT22;2209;48.982;8.406;2023-03-01T01:58:48;3.80;94.10
4390;DHT22;2209;48.982;8.406;2023-03-01T02:01:11;3.80;94.10
4390;DHT22;2209;48.982;8.406;2023-03-01T02:03:36;3.80;94.10
4390;DHT22;2209;48.982;8.406;2023-03-01T02:06:05;3.80;94.20
4390;DHT22;2209;48.982;8.406;2023-03-01T02:08:30;3.80;94.20
4390;DHT22;2209;48.982;8.406;2023-03-01T02:10:55;3.80;94.30
4390;DHT22;2209;48.982;8.406;2023-03-01T02:13:19;3.70;94.30
4390;DHT22;2209;48.982;8.406;2023-03-01T02:15:41;3.70;94.40
4390;DHT22;2209;48.982;8.406;2023-03-01T02:18:05;3.70;94.50
4390;DHT22;2209;48.982;8.406;2023-03-01T02:20:37;3.70;94.50
4390;DHT22;2209;48.982;8.406;2023-03-01T02:23:02;3.60;94.50
4390;DHT22;2209;48.982;8.406;2023-03-01T02:25:40;3.60;94.50
4390;DHT22;2209;48.982;8.406;2023-03-01T02:30:35;3.60;94.70
4390;DHT22;2209;48.982;8.406;2023-03-01T02:32:58;3.60;94.70
4390;DHT22;2209;48.982;8.406;2023-03-01T02:35:23;3.60;94.80
4390;DHT22;2209;48.982;8.406;2023-03-01T02:37:45;3.60;94.80
4390;DHT22;2209;48.982;8.406;2023-03-01T02:40:11;3.60;94.80
4390;DHT22;2209;48.982;8.406;2023-03-01T02:42:43;3.50;94.80
4390;DHT22;2209;48.982;8.406;2023-03-01T02:45:08;3.50;94.90
4390;DHT22;2209;48.982;8.406;2023-03-01T02:47:32;3.50;94.90
4390;DHT22;2209;48.982;8.406;2023-03-01T02:49:54;3.50;95.00
4390;DHT22;2209;48.982;8.406;2023-03-01T02:52:37;3.50;95.00
4390;DHT22;2209;48.982;8.406;2023-03-01T02:55:04;3.50;95.10
4390;DHT22;2209;48.982;8.406;2023-03-01T02:57:29;3.50;95.10
4390;DHT22;2209;48.982;8.406;2023-03-01T02:59:53;3.50;95.20
4390;DHT22;2209;48.982;8.406;2023-03-01T03:02:21;3.50;95.20
4390;DHT22;2209;48.982;8.406;2023-03-01T03:04:57;3.50;95.20
4390;DHT22;2209;48.982;8.406;2023-03-01T03:07:20;3.40;95.20
4390;DHT22;2209;48.982;8.406;2023-03-01T03:09:42;3.40;95.20
4390;DHT22;2209;48.982;8.406;2023-03-01T03:12:04;3.40;95.30
4390;DHT22;2209;48.982;8.406;2023-03-01T03:14:26;3.40;95.30
4390;DHT22;2209;48.982;8.406;2023-03-01T03:16:49;3.40;95.40
4390;DHT22;2209;48.982;8.406;2023-03-01T03:19:12;3.40;95.40
4390;DHT22;2209;48.982;8.406;2023-03-01T03:21:36;3.30;95.50
4390;DHT22;2209;48.982;8.406;2023-03-01T03:23:58;3.30;95.50
4390;DHT22;2209;48.982;8.406;2023-03-01T03:26:20;3.30;95.50
4390;DHT22;2209;48.982;8.406;2023-03-01T03:28:42;3.30;95.60
4390;DHT22;2209;48.982;8.406;2023-03-01T03:31:05;3.30;95.70
4390;DHT22;2209;48.982;8.406;2023-03-01T03:33:28;3.30;95.70
4390;DHT22;2209;48.982;8.406;2023-03-01T03:35:50;3.30;95.60
4390;DHT22;2209;48.982;8.406;2023-03-01T03:38:15;3.30;95.70
4390;DHT22;2209;48.982;8.406;2023-03-01T03:40:38;3.20;95.70
4390;DHT22;2209;48.982;8.406;2023-03-01T03:43:01;3.20;95.70
4390;DHT22;2209;48.982;8.406;2023-03-01T03:45:24;3.20;95.80
4390;DHT22;2209;48.982;8.406;2023-03-01T03:47:46;3.20;95.80
4390;DHT22;2209;48.982;8.406;2023-03-01T03:50:09;3.20;95.90
4390;DHT22;2209;48.982;8.406;2023-03-01T03:52:31;3.20;95.90
4390;DHT22;2209;48.982;8.406;2023-03-01T03:54:55;3.20;95.90
4390;DHT22;2209;48.982;8.406;2023-03-01T03:57:17;3.20;95.90
4390;DHT22;2209;48.982;8.406;2023-03-01T03:59:39;3.20;96.00
4390;DHT22;2209;48.982;8.406;2023-03-01T04:02:01;3.20;96.00
4390;DHT22;2209;48.982;8.406;2023-03-01T04:04:23;3.20;96.00
4390;DHT22;2209;48.982;8.406;2023-03-01T04:06:45;3.10;96.00
4390;DHT22;2209;48.982;8.406;2023-03-01T04:09:09;3.10;96.00
4390;DHT22;2209;48.982;8.406;2023-03-01T04:11:32;3.10;96.00
4390;DHT22;2209;48.982;8.406;2023-03-01T04:13:57;3.10;96.10
4390;DHT22;2209;48.982;8.406;2023-03-01T04:16:19;3.10;96.10
4390;DHT22;2209;48.982;8.406;2023-03-01T04:18:41;3.10;96.10
4390;DHT22;2209;48.982;8.406;2023-03-01T04:21:04;3.10;96.20
4390;DHT22;2209;48.982;8.406;2023-03-01T04:23:26;3.10;96.20
4390;DHT22;2209;48.982;8.406;2023-03-01T04:25:50;3.10;96.20
4390;DHT22;2209;48.982;8.406;2023-03-01T04:28:17;3.10;96.30
4390;DHT22;2209;48.982;8.406;2023-03-01T04:30:39;3.10;96.20
4390;DHT22;2209;48.982;8.406;2023-03-01T04:33:03;3.10;96.30
4390;DHT22;2209;48.982;8.406;2023-03-01T04:35:26;3.00;96.20
4390;DHT22;2209;48.982;8.406;2023-03-01T04:37:49;3.00;96.30
4390;DHT22;2209;48.982;8.406;2023-03-01T04:40:11;3.00;96.30
4390;DHT22;2209;48.982;8.406;2023-03-01T04:42:37;3.00;96.30
4390;DHT22;2209;48.982;8.406;2023-03-01T04:45:00;3.00;96.40
4390;DHT22;2209;48.982;8.406;2023-03-01T04:47:22;3.00;96.40
4390;DHT22;2209;48.982;8.406;2023-03-01T04:49:44;2.90;96.40
4390;DHT22;2209;48.982;8.406;2023-03-01T04:52:06;2.90;96.50
4390;DHT22;2209;48.982;8.406;2023-03-01T04:54:28;2.90;96.50
4390;DHT22;2209;48.982;8.406;2023-03-01T04:56:50;2.90;96.60
4390;DHT22;2209;48.982;8.406;2023-03-01T04:59:12;2.90;96.60
4390;DHT22;2209;48.982;8.406;2023-03-01T05:01:36;2.90;96.60
4390;DHT22;2209;48.982;8.406;2023-03-01T05:03:58;2.90;96.50
4390;DHT22;2209;48.982;8.406;2023-03-01T05:06:23;2.90;96.60
4390;DHT22;2209;48.982;8.406;2023-03-01T05:08:45;2.80;96.60
4390;DHT22;2209;48.982;8.406;2023-03-01T05:11:08;2.80;96.60
4390;DHT22;2209;48.982;8.406;2023-03-01T05:13:31;2.80;96.60
4390;DHT22;2209;48.982;8.406;2023-03-01T05:15:55;2.80;96.60
4390;DHT22;2209;48.982;8.406;2023-03-01T05:18:19;2.80;96.70
4390;DHT22;2209;48.982;8.406;2023-03-01T05:20:41;2.80;96.70
4390;DHT22;2209;48.982;8.406;2023-03-01T05:23:03;2.80;96.70
4390;DHT22;2209;48.982;8.406;2023-03-01T05:25:27;2.80;96.70
4390;DHT22;2209;48.982;8.406;2023-03-01T05:27:53;2.80;96.70
4390;DHT22;2209;48.982;8.406;2023-03-01T05:30:16;2.80;96.70
4390;DHT22;2209;48.982;8.406;2023-03-01T05:32:40;2.80;96.70
4390;DHT22;2209;48.982;8.406;2023-03-01T05:35:06;2.80;96.70
4390;DHT22;2209;48.982;8.406;2023-03-01T05:37:28;2.80;96.80
4390;DHT22;2209;48.982;8.406;2023-03-01T05:39:50;2.80;96.80
4390;DHT22;2209;48.982;8.406;2023-03-01T05:42:12;2.80;96.80
4390;DHT22;2209;48.982;8.406;2023-03-01T05:44:34;2.80;96.80
4390;DHT22;2209;48.982;8.406;2023-03-01T05:47:03;2.80;96.80
4390;DHT22;2209;48.982;8.406;2023-03-01T05:49:25;2.80;96.80
4390;DHT22;2209;48.982;8.406;2023-03-01T05:51:50;2.70;96.80
4390;DHT22;2209;48.982;8.406;2023-03-01T05:54:13;2.70;96.80
4390;DHT22;2209;48.982;8.406;2023-03-01T05:56:35;2.70;96.80
4390;DHT22;2209;48.982;8.406;2023-03-01T05:58:58;2.70;96.80
4390;DHT22;2209;48.982;8.406;2023-03-01T06:01:20;2.70;96.90
4390;DHT22;2209;48.982;8.406;2023-03-01T06:03:42;2.70;96.90
4390;DHT22;2209;48.982;8.406;2023-03-01T06:06:05;2.70;96.90
4390;DHT22;2209;48.982;8.406;2023-03-01T06:08:28;2.70;97.00
4390;DHT22;2209;48.982;8.406;2023-03-01T06:10:50;2.60;96.90
4390;DHT22;2209;48.982;8.406;2023-03-01T06:13:13;2.60;96.90
4390;DHT22;2209;48.982;8.406;2023-03-01T06:15:35;2.60;96.90
4390;DHT22;2209;48.982;8.406;2023-03-01T06:17:57;2.60;97.00
4390;DHT22;2209;48.982;8.406;2023-03-01T06:20:27;2.60;96.90
4390;DHT22;2209;48.982;8.406;2023-03-01T06:22:50;2.60;97.00
4390;DHT22;2209;48.982;8.406;2023-03-01T06:25:15;2.70;97.00
4390;DHT22;2209;48.982;8.406;2023-03-01T06:27:41;2.70;97.00
4390;DHT22;2209;48.982;8.406;2023-03-01T06:30:04;2.60;97.00
4390;DHT22;2209;48.982;8.406;2023-03-01T06:32:27;2.60;96.90
4390;DHT22;2209;48.982;8.406;2023-03-01T06:34:52;2.60;97.00
4390;DHT22;2209;48.982;8.406;2023-03-01T06:37:20;2.60;97.00
4390;DHT22;2209;48.982;8.406;2023-03-01T06:39:42;2.70;97.00
4390;DHT22;2209;48.982;8.406;2023-03-01T06:42:07;2.80;96.90
4390;DHT22;2209;48.982;8.406;2023-03-01T06:44:30;2.80;96.80
4390;DHT22;2209;48.982;8.406;2023-03-01T06:46:53;2.70;96.70
4390;DHT22;2209;48.982;8.406;2023-03-01T06:49:15;2.70;96.80
4390;DHT22;2209;48.982;8.406;2023-03-01T06:51:38;2.70;96.90
4390;DHT22;2209;48.982;8.406;2023-03-01T06:54:01;2.70;96.90
4390;DHT22;2209;48.982;8.406;2023-03-01T06:56:23;2.70;96.90
4390;DHT22;2209;48.982;8.406;2023-03-01T06:58:46;2.70;96.90
4390;DHT22;2209;48.982;8.406;2023-03-01T07:01:08;2.70;97.10
4390;DHT22;2209;48.982;8.406;2023-03-01T07:03:30;2.70;96.90
4390;DHT22;2209;48.982;8.406;2023-03-01T07:05:52;2.60;96.90
4390;DHT22;2209;48.982;8.406;2023-03-01T07:08:15;2.60;97.00
4390;DHT22;2209;48.982;8.406;2023-03-01T07:10:40;2.60;97.00
4390;DHT22;2209;48.982;8.406;2023-03-01T07:13:02;2.70;97.10
4390;DHT22;2209;48.982;8.406;2023-03-01T07:15:26;2.60;97.00
4390;DHT22;2209;48.982;8.406;2023-03-01T07:17:48;2.60;97.10
4390;DHT22;2209;48.982;8.406;2023-03-01T07:20:12;2.60;97.10
4390;DHT22;2209;48.982;8.406;2023-03-01T07:22:34;2.60;97.20
4390;DHT22;2209;48.982;8.406;2023-03-01T07:24:56;2.50;97.20
4390;DHT22;2209;48.982;8.406;2023-03-01T07:27:18;2.50;97.30
4390;DHT22;2209;48.982;8.406;2023-03-01T07:29:40;2.50;97.40
4390;DHT22;2209;48.982;8.406;2023-03-01T07:32:04;2.50;97.50
4390;DHT22;2209;48.982;8.406;2023-03-01T07:34:27;2.50;97.50
4390;DHT22;2209;48.982;8.406;2023-03-01T07:36:49;2.50;97.50
4390;DHT22;2209;48.982;8.406;2023-03-01T07:39:11;2.50;97.60
4390;DHT22;2209;48.982;8.406;2023-03-01T07:41:33;2.50;97.60
4390;DHT22;2209;48.982;8.406;2023-03-01T07:43:55;2.50;97.70
4390;DHT22;2209;48.982;8.406;2023-03-01T07:46:17;2.50;97.70
4390;DHT22;2209;48.982;8.406;2023-03-01T07:48:41;2.50;97.70
4390;DHT22;2209;48.982;8.406;2023-03-01T07:51:04;2.50;97.80
4390;DHT22;2209;48.982;8.406;2023-03-01T07:53:27;2.50;97.70
4390;DHT22;2209;48.982;8.406;2023-03-01T07:55:50;2.50;97.70
4390;DHT22;2209;48.982;8.406;2023-03-01T07:58:21;2.50;97.70
4390;DHT22;2209;48.982;8.406;2023-03-01T08:00:46;2.60;97.70
4390;DHT22;2209;48.982;8.406;2023-03-01T08:03:08;2.60;97.70
4390;DHT22;2209;48.982;8.406;2023-03-01T08:05:32;2.60;97.70
4390;DHT22;2209;48.982;8.406;2023-03-01T08:07:54;2.60;97.80
4390;DHT22;2209;48.982;8.406;2023-03-01T08:10:16;2.60;97.80
4390;DHT22;2209;48.982;8.406;2023-03-01T08:12:39;2.60;97.70
4390;DHT22;2209;48.982;8.406;2023-03-01T08:15:01;2.60;97.80
4390;DHT22;2209;48.982;8.406;2023-03-01T08:17:23;2.60;97.80
4390;DHT22;2209;48.982;8.406;2023-03-01T08:19:45;2.60;97.80
4390;DHT22;2209;48.982;8.406;2023-03-01T08:22:09;2.60;97.80
4390;DHT22;2209;48.982;8.406;2023-03-01T08:24:31;2.60;97.80
4390;DHT22;2209;48.982;8.406;2023-03-01T08:26:53;2.60;97.90
4390;DHT22;2209;48.982;8.406;2023-03-01T08:29:15;2.60;97.90
4390;DHT22;2209;48.982;8.406;2023-03-01T08:31:39;2.60;97.90
4390;DHT22;2209;48.982;8.406;2023-03-01T08:34:03;2.60;98.00
4390;DHT22;2209;48.982;8.406;2023-03-01T08:36:27;2.60;98.00
4390;DHT22;2209;48.982;8.406;2023-03-01T08:38:51;2.60;98.10
4390;DHT22;2209;48.982;8.406;2023-03-01T08:41:13;2.60;98.20
4390;DHT22;2209;48.982;8.406;2023-03-01T08:43:36;2.60;98.20
4390;DHT22;2209;48.982;8.406;2023-03-01T08:45:58;2.60;98.20
4390;DHT22;2209;48.982;8.406;2023-03-01T08:48:20;2.70;98.30
4390;DHT22;2209;48.982;8.406;2023-03-01T08:50:42;2.70;98.30
4390;DHT22;2209;48.982;8.406;2023-03-01T08:53:04;2.70;98.20
4390;DHT22;2209;48.982;8.406;2023-03-01T08:55:27;2.70;98.10
4390;DHT22;2209;48.982;8.406;2023-03-01T08:57:49;2.70;98.20
4390;DHT22;2209;48.982;8.406;2023-03-01T09:00:12;2.70;98.10
4390;DHT22;2209;48.982;8.406;2023-03-01T09:02:35;2.70;98.10
4390;DHT22;2209;48.982;8.406;2023-03-01T09:04:57;2.70;98.00
4390;DHT22;2209;48.982;8.406;2023-03-01T09:07:19;2.70;98.10
4390;DHT22;2209;48.982;8.406;2023-03-01T09:09:41;2.70;98.10
4390;DHT22;2209;48.982;8.406;2023-03-01T09:12:05;2.70;98.40
4390;DHT22;2209;48.982;8.406;2023-03-01T09:14:27;2.80;98.20
4390;DHT22;2209;48.982;8.406;2023-03-01T09:16:49;2.80;98.20
4390;DHT22;2209;48.982;8.406;2023-03-01T09:19:11;2.80;98.10
4390;DHT22;2209;48.982;8.406;2023-03-01T09:21:33;2.80;98.10
4390;DHT22;2209;48.982;8.406;2023-03-01T09:23:56;2.80;98.10
4390;DHT22;2209;48.982;8.406;2023-03-01T09:26:20;2.80;98.20
4390;DHT22;2209;48.982;8.406;2023-03-01T09:28:44;2.80;98.20
4390;DHT22;2209;48.982;8.406;2023-03-01T09:31:06;2.80;98.20
4390;DHT22;2209;48.982;8.406;2023-03-01T09:33:30;2.90;98.30
4390;DHT22;2209;48.982;8.406;2023-03-01T09:35:56;2.90;98.20
4390;DHT22;2209;48.982;8.406;2023-03-01T09:38:18;3.00;98.30
4390;DHT22;2209;48.982;8.406;2023-03-01T09:40:43;2.90;98.20
4390;DHT22;2209;48.982;8.406;2023-03-01T09:43:11;2.90;98.20
4390;DHT22;2209;48.982;8.406;2023-03-01T09:45:40;2.90;98.20
4390;DHT22;2209;48.982;8.406;2023-03-01T09:48:05;3.00;98.30
4390;DHT22;2209;48.982;8.406;2023-03-01T09:50:32;3.00;98.50
4390;DHT22;2209;48.982;8.406;2023-03-01T09:53:00;3.00;98.40
4390;DHT22;2209;48.982;8.406;2023-03-01T09:55:26;3.00;98.40
4390;DHT22;2209;48.982;8.406;2023-03-01T09:57:54;3.00;98.50
4390;DHT22;2209;48.982;8.406;2023-03-01T10:00:30;3.00;98.50
4390;DHT22;2209;48.982;8.406;2023-03-01T10:03:01;3.10;98.50
4390;DHT22;2209;48.982;8.406;2023-03-01T10:05:34;3.10;98.50
4390;DHT22;2209;48.982;8.406;2023-03-01T10:08:14;3.20;98.40
4390;DHT22;2209;48.982;8.406;2023-03-01T10:10:44;3.20;98.30
4390;DHT22;2209;48.982;8.406;2023-03-01T10:13:15;3.10;98.40
4390;DHT22;2209;48.982;8.406;2023-03-01T10:15:42;3.20;98.40
4390;DHT22;2209;48.982;8.406;2023-03-01T10:18:13;3.20;98.40
4390;DHT22;2209;48.982;8.406;2023-03-01T10:20:43;3.20;98.30
4390;DHT22;2209;48.982;8.406;2023-03-01T10:23:08;3.20;98.30
4390;DHT22;2209;48.982;8.406;2023-03-01T10:25:46;3.20;98.30
4390;DHT22;2209;48.982;8.406;2023-03-01T10:28:16;3.30;98.30
4390;DHT22;2209;48.982;8.406;2023-03-01T10:30:40;3.30;98.50
4390;DHT22;2209;48.982;8.406;2023-03-01T10:33:14;3.40;98.20
4390;DHT22;2209;48.982;8.406;2023-03-01T10:35:37;3.40;98.50
4390;DHT22;2209;48.982;8.406;2023-03-01T10:38:07;3.40;98.30
4390;DHT22;2209;48.982;8.406;2023-03-01T10:40:29;3.50;98.10
4390;DHT22;2209;48.982;8.406;2023-03-01T10:42:51;3.50;98.20
4390;DHT22;2209;48.982;8.406;2023-03-01T10:45:29;3.50;98.20
4390;DHT22;2209;48.982;8.406;2023-03-01T10:48:03;3.50;98.20
4390;DHT22;2209;48.982;8.406;2023-03-01T10:50:27;3.50;98.20
4390;DHT22;2209;48.982;8.406;2023-03-01T10:52:57;3.60;98.10
4390;DHT22;2209;48.982;8.406;2023-03-01T10:55:26;3.60;98.00
4390;DHT22;2209;48.982;8.406;2023-03-01T10:57:48;3.60;97.90
4390;DHT22;2209;48.982;8.406;2023-03-01T11:00:20;3.70;97.90
4390;DHT22;2209;48.982;8.406;2023-03-01T11:02:43;3.70;97.90
4390;DHT22;2209;48.982;8.406;2023-03-01T11:05:16;3.70;97.90
4390;DHT22;2209;48.982;8.406;2023-03-01T11:07:48;3.70;98.00
4390;DHT22;2209;48.982;8.406;2023-03-01T11:10:15;3.70;98.10
4390;DHT22;2209;48.982;8.406;2023-03-01T11:12:38;3.70;98.30
4390;DHT22;2209;48.982;8.406;2023-03-01T11:15:00;3.70;97.80
4390;DHT22;2209;48.982;8.406;2023-03-01T11:17:30;3.80;97.70
4390;DHT22;2209;48.982;8.406;2023-03-01T11:20:23;3.80;98.00
4390;DHT22;2209;48.982;8.406;2023-03-01T11:22:49;3.90;97.80
4390;DHT22;2209;48.982;8.406;2023-03-01T11:25:14;3.90;97.70
4390;DHT22;2209;48.982;8.406;2023-03-01T11:27:39;4.00;97.80
4390;DHT22;2209;48.982;8.406;2023-03-01T11:30:05;4.00;98.10
4390;DHT22;2209;48.982;8.406;2023-03-01T11:32:34;4.00;97.90
4390;DHT22;2209;48.982;8.406;2023-03-01T11:35:02;4.00;97.90
4390;DHT22;2209;48.982;8.406;2023-03-01T11:37:33;4.00;97.90
4390;DHT22;2209;48.982;8.406;2023-03-01T11:40:05;4.00;98.00
4390;DHT22;2209;48.982;8.406;2023-03-01T11:42:46;4.10;98.00
4390;DHT22;2209;48.982;8.406;2023-03-01T11:45:11;4.10;97.90
4390;DHT22;2209;48.982;8.406;2023-03-01T11:47:51;4.10;97.80
4390;DHT22;2209;48.982;8.406;2023-03-01T11:50:28;4.10;97.90
4390;DHT22;2209;48.982;8.406;2023-03-01T11:53:01;4.10;97.80
4390;DHT22;2209;48.982;8.406;2023-03-01T11:55:43;4.20;97.80
4390;DHT22;2209;48.982;8.406;2023-03-01T12:01:08;4.20;97.90
4390;DHT22;2209;48.982;8.406;2023-03-01T12:03:44;4.30;97.90
4390;DHT22;2209;48.982;8.406;2023-03-01T12:06:30;4.30;97.90
4390;DHT22;2209;48.982;8.406;2023-03-01T12:09:02;4.40;97.90
4390;DHT22;2209;48.982;8.406;2023-03-01T12:11:41;4.40;97.70
4390;DHT22;2209;48.982;8.406;2023-03-01T12:14:30;4.40;97.80
4390;DHT22;2209;48.982;8.406;2023-03-01T12:17:07;4.50;97.80
4390;DHT22;2209;48.982;8.406;2023-03-01T12:19:55;4.50;97.80
4390;DHT22;2209;48.982;8.406;2023-03-01T12:22:29;4.60;97.90
4390;DHT22;2209;48.982;8.406;2023-03-01T12:25:16;4.60;97.60
4390;DHT22;2209;48.982;8.406;2023-03-01T12:28:07;4.70;97.60
4390;DHT22;2209;48.982;8.406;2023-03-01T12:30:42;4.80;97.50
4390;DHT22;2209;48.982;8.406;2023-03-01T12:33:17;4.80;97.50
4390;DHT22;2209;48.982;8.406;2023-03-01T12:38:41;4.90;97.40
4390;DHT22;2209;48.982;8.406;2023-03-01T12:41:41;4.90;97.50
4390;DHT22;2209;48.982;8.406;2023-03-01T12:44:15;5.00;97.30
4390;DHT22;2209;48.982;8.406;2023-03-01T12:46:52;5.00;97.20
4390;DHT22;2209;48.982;8.406;2023-03-01T12:49:21;5.10;97.20
4390;DHT22;2209;48.982;8.406;2023-03-01T12:51:51;5.20;97.00
4390;DHT22;2209;48.982;8.406;2023-03-01T12:54:16;5.20;96.80
4390;DHT22;2209;48.982;8.406;2023-03-01T12:56:41;5.30;96.90
4390;DHT22;2209;48.982;8.406;2023-03-01T12:59:15;5.30;96.80
4390;DHT22;2209;48.982;8.406;2023-03-01T13:01:44;5.30;97.00
4390;DHT22;2209;48.982;8.406;2023-03-01T13:04:28;5.30;97.00
4390;DHT22;2209;48.982;8.406;2023-03-01T13:07:02;5.30;96.90
4390;DHT22;2209;48.982;8.406;2023-03-01T13:09:33;5.40;97.00
4390;DHT22;2209;48.982;8.406;2023-03-01T13:11:56;5.40;97.00
4390;DHT22;2209;48.982;8.406;2023-03-01T13:14:46;5.50;96.80
4390;DHT22;2209;48.982;8.406;2023-03-01T13:17:30;5.50;96.90
4390;DHT22;2209;48.982;8.406;2023-03-01T13:19:56;5.60;96.70
4390;DHT22;2209;48.982;8.406;2023-03-01T13:22:28;5.60;97.10
4390;DHT22;2209;48.982;8.406;2023-03-01T13:25:01;5.70;96.50
4390;DHT22;2209;48.982;8.406;2023-03-01T13:27:24;5.80;96.60
4390;DHT22;2209;48.982;8.406;2023-03-01T13:29:53;5.80;96.50
4390;DHT22;2209;48.982;8.406;2023-03-01T13:32:22;5.80;96.40
4390;DHT22;2209;48.982;8.406;2023-03-01T13:34:53;5.90;96.70
4390;DHT22;2209;48.982;8.406;2023-03-01T13:37:21;5.90;96.50
4390;DHT22;2209;48.982;8.406;2023-03-01T13:39:43;6.00;96.10
4390;DHT22;2209;48.982;8.406;2023-03-01T13:42:33;6.00;95.90
4390;DHT22;2209;48.982;8.406;2023-03-01T13:44:58;6.10;96.00
4390;DHT22;2209;48.982;8.406;2023-03-01T13:47:21;6.10;95.90
4390;DHT22;2209;48.982;8.406;2023-03-01T13:49:46;6.20;95.90
4390;DHT22;2209;48.982;8.406;2023-03-01T13:55:01;6.40;95.90
4390;DHT22;2209;48.982;8.406;2023-03-01T13:57:31;6.40;95.60
4390;DHT22;2209;48.982;8.406;2023-03-01T13:59:54;6.50;95.60
4390;DHT22;2209;48.982;8.406;2023-03-01T14:02:17;6.60;95.60
4390;DHT22;2209;48.982;8.406;2023-03-01T14:04:39;6.70;95.60
4390;DHT22;2209;48.982;8.406;2023-03-01T14:07:12;6.80;95.30
4390;DHT22;2209;48.982;8.406;2023-03-01T14:09:37;6.90;95.20
4390;DHT22;2209;48.982;8.406;2023-03-01T14:12:12;6.90;95.10
4390;DHT22;2209;48.982;8.406;2023-03-01T14:14:45;7.00;95.00
4390;DHT22;2209;48.982;8.406;2023-03-01T14:20:02;7.20;94.90
4390;DHT22;2209;48.982;8.406;2023-03-01T14:22:27;7.20;94.60
4390;DHT22;2209;48.982;8.406;2023-03-01T14:24:54;7.30;94.60
4390;DHT22;2209;48.982;8.406;2023-03-01T14:27:18;7.40;94.30
4390;DHT22;2209;48.982;8.406;2023-03-01T14:29:40;7.40;94.30
4390;DHT22;2209;48.982;8.406;2023-03-01T14:32:16;7.50;94.20
4390;DHT22;2209;48.982;8.406;2023-03-01T14:34:44;7.50;94.20
4390;DHT22;2209;48.982;8.406;2023-03-01T14:37:19;7.60;93.80
4390;DHT22;2209;48.982;8.406;2023-03-01T14:39:41;7.70;93.80
4390;DHT22;2209;48.982;8.406;2023-03-01T14:42:04;7.70;93.80
4390;DHT22;2209;48.982;8.406;2023-03-01T14:44:26;7.70;93.90
4390;DHT22;2209;48.982;8.406;2023-03-01T14:46:52;7.80;93.80
4390;DHT22;2209;48.982;8.406;2023-03-01T14:49:17;7.80;93.80
4390;DHT22;2209;48.982;8.406;2023-03-01T14:51:43;7.90;93.70
4390;DHT22;2209;48.982;8.406;2023-03-01T14:54:20;8.00;93.60
4390;DHT22;2209;48.982;8.406;2023-03-01T14:56:46;8.10;93.40
4390;DHT22;2209;48.982;8.406;2023-03-01T14:59:09;8.10;93.40
4390;DHT22;2209;48.982;8.406;2023-03-01T15:01:31;8.10;93.30
4390;DHT22;2209;48.982;8.406;2023-03-01T15:03:53;8.20;93.20
4390;DHT22;2209;48.982;8.406;2023-03-01T15:06:18;8.20;93.20
4390;DHT22;2209;48.982;8.406;2023-03-01T15:08:42;8.30;93.10
4390;DHT22;2209;48.982;8.406;2023-03-01T15:11:19;8.40;92.90
4390;DHT22;2209;48.982;8.406;2023-03-01T15:13:43;8.40;92.80
4390;DHT22;2209;48.982;8.406;2023-03-01T15:16:09;8.40;92.80
4390;DHT22;2209;48.982;8.406;2023-03-01T15:18:32;8.40;92.80
4390;DHT22;2209;48.982;8.406;2023-03-01T15:20:54;8.40;92.80
4390;DHT22;2209;48.982;8.406;2023-03-01T15:23:22;8.50;92.80
4390;DHT22;2209;48.982;8.406;2023-03-01T15:25:45;8.50;92.60
4390;DHT22;2209;48.982;8.406;2023-03-01T15:28:19;8.60;92.40
4390;DHT22;2209;48.982;8.406;2023-03-01T15:30:42;8.60;92.30
4390;DHT22;2209;48.982;8.406;2023-03-01T15:33:19;8.60;92.20
4390;DHT22;2209;48.982;8.406;2023-03-01T15:35:43;8.70;92.20
4390;DHT22;2209;48.982;8.406;2023-03-01T15:38:28;8.70;92.10
4390;DHT22;2209;48.982;8.406;2023-03-01T15:40:50;8.80;91.90
4390;DHT22;2209;48.982;8.406;2023-03-01T15:43:41;8.80;91.80
4390;DHT22;2209;48.982;8.406;2023-03-01T15:46:04;8.80;92.00
4390;DHT22;2209;48.982;8.406;2023-03-01T15:48:26;8.90;91.50
4390;DHT22;2209;48.982;8.406;2023-03-01T15:50:54;8.90;91.40
4390;DHT22;2209;48.982;8.406;2023-03-01T15:53:17;8.80;91.40
4390;DHT22;2209;48.982;8.406;2023-03-01T15:55:40;8.90;91.30
4390;DHT22;2209;48.982;8.406;2023-03-01T15:58:04;8.90;91.30
4390;DHT22;2209;48.982;8.406;2023-03-01T16:00:29;8.90;91.00
4390;DHT22;2209;48.982;8.406;2023-03-01T16:02:51;8.90;91.00
4390;DHT22;2209;48.982;8.406;2023-03-01T16:05:17;8.90;90.90
4390;DHT22;2209;48.982;8.406;2023-03-01T16:07:40;9.00;90.90
4390;DHT22;2209;48.982;8.406;2023-03-01T16:10:02;9.00;90.80
4390;DHT22;2209;48.982;8.406;2023-03-01T16:12:24;9.00;90.80
4390;DHT22;2209;48.982;8.406;2023-03-01T16:14:47;8.90;90.60
4390;DHT22;2209;48.982;8.406;2023-03-01T16:17:11;8.90;90.60
4390;DHT22;2209;48.982;8.406;2023-03-01T16:19:33;8.90;90.60
4390;DHT22;2209;48.982;8.406;2023-03-01T16:21:55;8.90;90.50